Time,TemperatureF,DewpointF,PressureIn,WindDirection,WindDirectionDegrees,WindSpeedMPH,WindSpeedGustMPH,Humidity,HourlyPrecipIn,Conditions,Clouds,dailyrainin,SoftwareType,DateUTC
2013-01-01 00:00:00,29.3,20.4,30.07,NW,315,0.2,1.8,69,0.00,,,0.00,WUHU216HW,2013-01-01 05:00:00,
2013-01-01 00:02:00,29.3,20.4,30.07,WSW,248,0.2,1.8,69,0.00,,,0.00,WUHU216HW,2013-01-01 05:02:00,
2013-01-01 00:07:00,29.2,19.9,30.07,NW,315,0.4,1.6,68,0.00,,,0.00,WUHU216HW,2013-01-01 05:07:00,
2013-01-01 00:12:00,29.2,19.9,30.07,NW,315,0.4,0.9,68,0.00,,,0.00,WUHU216HW,2013-01-01 05:12:00,
2013-01-01 00:17:00,28.8,19.3,30.07,NW,315,0.0,0.9,67,0.00,,,0.00,WUHU216HW,2013-01-01 05:17:00,
2013-01-01 00:22:00,28.8,18.9,30.07,WNW,293,1.1,1.1,66,0.00,,,0.00,WUHU216HW,2013-01-01 05:22:00,
2013-01-01 00:27:00,28.4,18.5,30.07,WSW,248,0.4,1.8,66,0.00,,,0.00,WUHU216HW,2013-01-01 05:27:00,
2013-01-01 00:32:00,28.4,18.2,30.07,North,0,0.4,1.8,65,0.00,,,0.00,WUHU216HW,2013-01-01 05:32:00,
2013-01-01 00:37:00,28.4,18.2,30.07,NW,315,0.4,0.9,65,0.00,,,0.00,WUHU216HW,2013-01-01 05:37:00,
2013-01-01 00:42:00,28.4,18.5,30.07,West,270,0.4,0.9,66,0.00,,,0.00,WUHU216HW,2013-01-01 05:42:00,
2013-01-01 00:47:00,28.4,17.8,30.07,NNW,338,0.4,3.4,64,0.00,,,0.00,WUHU216HW,2013-01-01 05:47:00,
2013-01-01 00:52:00,28.3,17.6,30.07,WNW,293,0.9,3.4,64,0.00,,,0.00,WUHU216HW,2013-01-01 05:52:00,
2013-01-01 00:57:00,28.3,17.6,30.07,NW,315,0.4,2.0,64,0.00,,,0.00,WUHU216HW,2013-01-01 05:57:00,
2013-01-01 01:02:00,28.3,17.6,30.07,North,0,0.4,1.1,64,0.00,,,0.00,WUHU216HW,2013-01-01 06:02:00,
2013-01-01 01:07:00,28.1,17.5,30.07,NNW,338,0.4,1.6,64,0.00,,,0.00,WUHU216HW,2013-01-01 06:07:00,
2013-01-01 01:12:00,28.1,17.8,30.06,NNW,338,0.4,1.6,65,0.00,,,0.00,WUHU216HW,2013-01-01 06:12:00,
2013-01-01 01:17:00,28.3,18.0,30.07,North,0,0.0,0.7,65,0.00,,,0.00,WUHU216HW,2013-01-01 06:17:00,
2013-01-01 01:22:00,28.4,18.2,30.07,NNW,338,0.4,1.8,65,0.00,,,0.00,WUHU216HW,2013-01-01 06:22:00,
2013-01-01 01:27:00,27.9,17.3,30.07,NNE,23,0.4,2.5,64,0.00,,,0.00,WUHU216HW,2013-01-01 06:27:00,
2013-01-01 01:32:00,27.7,16.7,30.07,NW,315,0.4,2.5,63,0.00,,,0.00,WUHU216HW,2013-01-01 06:32:00,
2013-01-01 01:37:00,27.7,17.1,30.07,West,270,1.8,2.5,64,0.00,,,0.00,WUHU216HW,2013-01-01 06:37:00,
2013-01-01 01:42:00,27.5,16.9,30.07,NW,315,0.7,1.8,64,0.00,,,0.00,WUHU216HW,2013-01-01 06:42:00,
2013-01-01 01:47:00,27.5,16.6,30.07,NNW,338,1.3,1.8,63,0.00,,,0.00,WUHU216HW,2013-01-01 06:47:00,
2013-01-01 01:52:00,27.4,16.4,30.07,NW,315,1.8,1.8,63,0.00,,,0.00,WUHU216HW,2013-01-01 06:52:00,
2013-01-01 01:57:00,27.4,16.4,30.07,North,0,0.0,1.8,63,0.00,,,0.00,WUHU216HW,2013-01-01 06:57:00,
2013-01-01 02:02:00,27.4,16.4,30.07,NNE,23,0.7,0.9,63,0.00,,,0.00,WUHU216HW,2013-01-01 07:02:00,
2013-01-01 02:07:00,27.2,16.2,30.07,WSW,248,0.0,1.1,63,0.00,,,0.00,WUHU216HW,2013-01-01 07:07:00,
2013-01-01 02:12:00,27.2,16.2,30.07,WNW,293,0.4,2.0,63,0.00,,,0.00,WUHU216HW,2013-01-01 07:12:00,
2013-01-01 02:17:00,27.2,16.2,30.07,North,0,0.7,2.0,63,0.00,,,0.00,WUHU216HW,2013-01-01 07:17:00,
2013-01-01 02:22:00,27.2,16.2,30.08,West,270,0.4,1.3,63,0.00,,,0.00,WUHU216HW,2013-01-01 07:22:00,
2013-01-01 02:27:00,27.4,16.4,30.08,NW,315,0.2,0.4,63,0.00,,,0.00,WUHU216HW,2013-01-01 07:27:00,
2013-01-01 02:32:00,27.4,16.7,30.08,North,0,0.0,1.6,64,0.00,,,0.00,WUHU216HW,2013-01-01 07:32:00,
2013-01-01 02:37:00,27.4,16.4,30.08,West,270,0.2,1.6,63,0.00,,,0.00,WUHU216HW,2013-01-01 07:37:00,
2013-01-01 02:42:00,27.2,16.2,30.09,West,270,0.7,0.7,63,0.00,,,0.00,WUHU216HW,2013-01-01 07:42:00,
2013-01-01 02:47:00,27.2,16.2,30.09,NNW,338,1.1,2.5,63,0.00,,,0.00,WUHU216HW,2013-01-01 07:47:00,
2013-01-01 02:52:00,27.2,16.6,30.09,SSW,203,0.2,2.5,64,0.00,,,0.00,WUHU216HW,2013-01-01 07:52:00,
2013-01-01 02:57:00,27.0,16.4,30.09,West,270,0.2,1.6,64,0.00,,,0.00,WUHU216HW,2013-01-01 07:57:00,
2013-01-01 03:02:00,27.0,16.4,30.08,NW,315,1.6,1.6,64,0.00,,,0.00,WUHU216HW,2013-01-01 08:02:00,
2013-01-01 03:07:00,27.0,16.4,30.08,NW,315,0.0,1.6,64,0.00,,,0.00,WUHU216HW,2013-01-01 08:07:00,
2013-01-01 03:12:00,27.0,16.7,30.08,WSW,248,0.4,0.7,65,0.00,,,0.00,WUHU216HW,2013-01-01 08:12:00,
2013-01-01 03:17:00,27.0,16.7,30.08,NW,315,0.0,0.7,65,0.00,,,0.00,WUHU216HW,2013-01-01 08:17:00,
2013-01-01 03:22:00,27.0,16.7,30.09,NW,315,0.0,0.7,65,0.00,,,0.00,WUHU216HW,2013-01-01 08:22:00,
2013-01-01 03:27:00,27.0,16.7,30.09,NNW,338,0.0,0.7,65,0.00,,,0.00,WUHU216HW,2013-01-01 08:27:00,
2013-01-01 03:32:00,27.0,16.7,30.09,West,270,1.1,1.1,65,0.00,,,0.00,WUHU216HW,2013-01-01 08:32:00,
2013-01-01 03:37:00,27.0,16.7,30.09,WSW,248,1.3,1.3,65,0.00,,,0.00,WUHU216HW,2013-01-01 08:37:00,
2013-01-01 03:42:00,26.8,16.6,30.09,WSW,248,0.4,1.3,65,0.00,,,0.00,WUHU216HW,2013-01-01 08:42:00,
2013-01-01 03:47:00,26.6,16.4,30.09,North,0,0.0,0.9,65,0.00,,,0.00,WUHU216HW,2013-01-01 08:47:00,
2013-01-01 03:52:00,26.6,16.4,30.08,NNE,23,0.4,0.4,65,0.00,,,0.00,WUHU216HW,2013-01-01 08:52:00,
2013-01-01 03:57:00,26.6,16.4,30.08,NNW,338,0.4,0.4,65,0.00,,,0.00,WUHU216HW,2013-01-01 08:57:00,
2013-01-01 04:02:00,26.3,16.0,30.08,NE,45,1.8,1.8,65,0.00,,,0.00,WUHU216HW,2013-01-01 09:02:00,
2013-01-01 04:07:00,26.3,15.7,30.09,North,0,1.1,1.8,64,0.00,,,0.00,WUHU216HW,2013-01-01 09:07:00,
2013-01-01 04:12:00,26.1,15.5,30.09,NNE,23,1.8,1.8,64,0.00,,,0.00,WUHU216HW,2013-01-01 09:12:00,
2013-01-01 04:17:00,26.3,15.7,30.09,NNW,338,0.4,1.8,64,0.00,,,0.00,WUHU216HW,2013-01-01 09:17:00,
2013-01-01 04:22:00,26.1,15.1,30.09,NNW,338,0.7,1.8,63,0.00,,,0.00,WUHU216HW,2013-01-01 09:22:00,
2013-01-01 04:27:00,25.9,15.0,30.09,NNE,23,1.1,2.2,63,0.00,,,0.00,WUHU216HW,2013-01-01 09:27:00,
2013-01-01 04:32:00,25.9,15.0,30.09,NNE,23,1.3,2.2,63,0.00,,,0.00,WUHU216HW,2013-01-01 09:32:00,
2013-01-01 04:37:00,25.7,14.9,30.09,North,0,1.8,1.8,63,0.00,,,0.00,WUHU216HW,2013-01-01 09:37:00,
2013-01-01 04:42:00,25.6,14.7,30.09,North,0,0.2,1.8,63,0.00,,,0.00,WUHU216HW,2013-01-01 09:42:00,
2013-01-01 04:47:00,25.6,14.7,30.09,NNW,338,0.9,1.8,63,0.00,,,0.00,WUHU216HW,2013-01-01 09:47:00,
2013-01-01 04:52:00,25.6,14.7,30.09,North,0,0.0,1.1,63,0.00,,,0.00,WUHU216HW,2013-01-01 09:52:00,
2013-01-01 04:57:00,25.6,15.0,30.10,NE,45,1.1,1.1,64,0.00,,,0.00,WUHU216HW,2013-01-01 09:57:00,
2013-01-01 05:02:00,25.6,15.0,30.10,NE,45,1.8,2.7,64,0.00,,,0.00,WUHU216HW,2013-01-01 10:02:00,
2013-01-01 05:07:00,25.4,14.9,30.10,North,0,1.8,2.7,64,0.00,,,0.00,WUHU216HW,2013-01-01 10:07:00,
2013-01-01 05:12:00,25.2,15.4,30.10,North,0,0.9,2.2,66,0.00,,,0.00,WUHU216HW,2013-01-01 10:12:00,
2013-01-01 05:17:00,24.8,15.0,30.10,NE,45,0.7,1.8,66,0.00,,,0.00,WUHU216HW,2013-01-01 10:17:00,
2013-01-01 05:22:00,24.8,15.4,30.10,NNW,338,1.1,1.8,67,0.00,,,0.00,WUHU216HW,2013-01-01 10:22:00,
2013-01-01 05:27:00,24.8,15.0,30.10,North,0,0.4,1.6,66,0.00,,,0.00,WUHU216HW,2013-01-01 10:27:00,
2013-01-01 05:32:00,24.8,15.0,30.11,North,0,0.4,1.3,66,0.00,,,0.00,WUHU216HW,2013-01-01 10:32:00,
2013-01-01 05:37:00,24.8,15.4,30.10,NNE,23,0.4,0.7,67,0.00,,,0.00,WUHU216HW,2013-01-01 10:37:00,
2013-01-01 05:42:00,24.8,15.4,30.11,NW,315,0.2,0.7,67,0.00,,,0.00,WUHU216HW,2013-01-01 10:42:00,
2013-01-01 05:47:00,24.8,15.4,30.11,NNW,338,0.2,0.9,67,0.00,,,0.00,WUHU216HW,2013-01-01 10:47:00,
2013-01-01 05:52:00,24.8,15.7,30.11,North,0,0.4,0.9,68,0.00,,,0.00,WUHU216HW,2013-01-01 10:52:00,
2013-01-01 05:57:00,24.8,15.4,30.11,West,270,0.0,1.1,67,0.00,,,0.00,WUHU216HW,2013-01-01 10:57:00,
2013-01-01 06:02:00,24.8,15.4,30.11,NNW,338,2.0,2.0,67,0.00,,,0.00,WUHU216HW,2013-01-01 11:02:00,
2013-01-01 06:07:00,24.7,15.2,30.11,North,0,2.5,3.1,67,0.00,,,0.00,WUHU216HW,2013-01-01 11:07:00,
2013-01-01 06:12:00,24.3,14.9,30.11,ENE,68,0.7,3.1,67,0.00,,,0.00,WUHU216HW,2013-01-01 11:12:00,
2013-01-01 06:17:00,24.3,14.9,30.11,North,0,0.9,1.3,67,0.00,,,0.00,WUHU216HW,2013-01-01 11:17:00,
2013-01-01 06:22:00,24.3,14.9,30.11,North,0,0.0,0.9,67,0.00,,,0.00,WUHU216HW,2013-01-01 11:22:00,
2013-01-01 06:27:00,24.5,15.0,30.10,North,0,0.9,0.9,67,0.00,,,0.00,WUHU216HW,2013-01-01 11:27:00,
2013-01-01 06:32:00,24.1,14.3,30.11,NNE,23,1.1,1.8,66,0.00,,,0.00,WUHU216HW,2013-01-01 11:32:00,
2013-01-01 06:37:00,24.1,14.0,30.11,North,0,2.0,2.0,65,0.00,,,0.00,WUHU216HW,2013-01-01 11:37:00,
2013-01-01 06:42:00,23.8,13.7,30.11,NW,315,0.7,2.0,65,0.00,,,0.00,WUHU216HW,2013-01-01 11:42:00,
2013-01-01 06:47:00,23.8,13.3,30.11,North,0,0.4,1.3,64,0.00,,,0.00,WUHU216HW,2013-01-01 11:47:00,
2013-01-01 06:52:00,23.8,13.3,30.11,NNW,338,0.4,1.1,64,0.00,,,0.00,WUHU216HW,2013-01-01 11:52:00,
2013-01-01 06:57:00,23.6,13.2,30.11,NW,315,0.0,1.1,64,0.00,,,0.00,WUHU216HW,2013-01-01 11:57:00,
2013-01-01 07:02:00,23.4,13.0,30.11,NE,45,0.7,1.3,64,0.00,,,0.00,WUHU216HW,2013-01-01 12:02:00,
2013-01-01 07:07:00,23.6,13.2,30.12,North,0,0.9,1.3,64,0.00,,,0.00,WUHU216HW,2013-01-01 12:07:00,
2013-01-01 07:12:00,23.4,13.0,30.13,NE,45,0.2,1.3,64,0.00,,,0.00,WUHU216HW,2013-01-01 12:12:00,
2013-01-01 07:17:00,23.4,13.0,30.13,NNW,338,0.2,1.3,64,0.00,,,0.00,WUHU216HW,2013-01-01 12:17:00,
2013-01-01 07:22:00,23.4,13.0,30.14,NNW,338,0.2,1.3,64,0.00,,,0.00,WUHU216HW,2013-01-01 12:22:00,
2013-01-01 07:27:00,23.4,13.0,30.13,NNW,338,0.0,1.1,64,0.00,,,0.00,WUHU216HW,2013-01-01 12:27:00,
2013-01-01 07:32:00,23.4,13.0,30.14,West,270,0.9,0.9,64,0.00,,,0.00,WUHU216HW,2013-01-01 12:32:00,
2013-01-01 07:37:00,23.4,13.0,30.14,NNW,338,0.7,1.3,64,0.00,,,0.00,WUHU216HW,2013-01-01 12:37:00,
2013-01-01 07:42:00,23.0,12.6,30.14,NNW,338,0.0,1.3,64,0.00,,,0.00,WUHU216HW,2013-01-01 12:42:00,
2013-01-01 07:47:00,23.4,13.3,30.14,NW,315,0.4,0.7,65,0.00,,,0.00,WUHU216HW,2013-01-01 12:47:00,
2013-01-01 07:52:00,23.2,12.8,30.14,NNE,23,0.7,0.7,64,0.00,,,0.00,WUHU216HW,2013-01-01 12:52:00,
2013-01-01 07:57:00,23.2,13.2,30.15,NNW,338,0.9,1.3,65,0.00,,,0.00,WUHU216HW,2013-01-01 12:57:00,
2013-01-01 08:02:00,23.0,13.0,30.15,North,0,0.2,1.3,65,0.00,,,0.00,WUHU216HW,2013-01-01 13:02:00,
2013-01-01 08:07:00,22.9,12.8,30.14,NNW,338,0.4,0.7,65,0.00,,,0.00,WUHU216HW,2013-01-01 13:07:00,
2013-01-01 08:12:00,23.0,13.3,30.14,NW,315,0.0,0.7,66,0.00,,,0.00,WUHU216HW,2013-01-01 13:12:00,
2013-01-01 08:17:00,23.2,13.2,30.14,NNW,338,0.0,1.1,65,0.00,,,0.00,WUHU216HW,2013-01-01 13:17:00,
2013-01-01 08:22:00,23.0,13.0,30.14,North,0,0.4,1.1,65,0.00,,,0.00,WUHU216HW,2013-01-01 13:22:00,
2013-01-01 08:27:00,23.0,13.0,30.14,West,270,0.9,1.1,65,0.00,,,0.00,WUHU216HW,2013-01-01 13:27:00,
2013-01-01 08:32:00,23.2,13.2,30.14,NNW,338,0.4,0.9,65,0.00,,,0.00,WUHU216HW,2013-01-01 13:32:00,
2013-01-01 08:37:00,23.0,13.0,30.14,NNE,23,0.4,0.7,65,0.00,,,0.00,WUHU216HW,2013-01-01 13:37:00,
2013-01-01 08:42:00,22.9,12.8,30.15,NW,315,0.9,0.9,65,0.00,,,0.00,WUHU216HW,2013-01-01 13:42:00,
2013-01-01 08:47:00,22.9,12.8,30.15,West,270,0.4,0.9,65,0.00,,,0.00,WUHU216HW,2013-01-01 13:47:00,
2013-01-01 08:52:00,22.9,12.8,30.16,West,270,0.2,0.9,65,0.00,,,0.00,WUHU216HW,2013-01-01 13:52:00,
2013-01-01 08:57:00,23.0,13.0,30.16,North,0,0.4,0.9,65,0.00,,,0.00,WUHU216HW,2013-01-01 13:57:00,
2013-01-01 09:02:00,23.0,13.0,30.16,WSW,248,2.0,2.0,65,0.00,,,0.00,WUHU216HW,2013-01-01 14:02:00,
2013-01-01 09:07:00,22.7,12.2,30.17,NW,315,0.7,2.0,64,0.00,,,0.00,WUHU216HW,2013-01-01 14:07:00,
2013-01-01 09:08:00,20.3,13.0,30.51,SW,225,0.7,5.1,73,0.00,,,0.00,WUHU216HW,2013-01-01 14:08:00,
2013-01-01 09:09:00,20.5,13.5,30.51,SSE,158,0.0,5.1,74,0.00,,,0.00,WUHU216HW,2013-01-01 14:09:00,
2013-01-01 09:10:00,20.5,13.1,30.51,WSW,248,0.0,5.1,73,0.00,,,0.00,WUHU216HW,2013-01-01 14:10:00,
2013-01-01 09:11:00,20.7,13.3,30.51,SSW,203,0.2,5.1,73,0.00,,,0.00,WUHU216HW,2013-01-01 14:11:00,
2013-01-01 09:12:00,22.5,12.1,30.17,West,270,1.1,1.8,64,0.00,,,0.00,WUHU216HW,2013-01-01 14:12:00,
2013-01-01 09:13:00,21.2,13.9,30.51,South,180,0.2,5.1,73,0.00,,,0.00,WUHU216HW,2013-01-01 14:13:00,
2013-01-01 09:14:00,21.2,13.9,30.51,ESE,113,0.2,5.1,73,0.00,,,0.00,WUHU216HW,2013-01-01 14:14:00,
2013-01-01 09:15:00,21.2,13.9,30.51,South,180,0.0,5.1,73,0.00,,,0.00,WUHU216HW,2013-01-01 14:15:00,
2013-01-01 09:16:00,21.6,14.2,30.51,WSW,248,0.0,5.1,73,0.00,,,0.00,WUHU216HW,2013-01-01 14:16:00,
2013-01-01 09:17:00,22.5,12.4,30.18,North,0,0.2,1.8,65,0.00,,,0.00,WUHU216HW,2013-01-01 14:17:00,
2013-01-01 09:18:00,21.8,14.5,30.40,SE,135,0.0,5.1,73,0.00,,,0.00,WUHU216HW,2013-01-01 14:18:00,
2013-01-01 09:19:00,22.0,14.6,30.51,SW,225,0.2,5.1,73,0.00,,,0.00,WUHU216HW,2013-01-01 14:19:00,
2013-01-01 09:20:00,22.1,14.8,30.51,SSE,158,0.4,5.1,73,0.00,,,0.00,WUHU216HW,2013-01-01 14:20:00,
2013-01-01 09:21:00,22.1,14.8,30.51,SSW,203,0.4,5.1,73,0.00,,,0.00,WUHU216HW,2013-01-01 14:21:00,
2013-01-01 09:22:00,22.7,12.6,30.18,WSW,248,1.8,4.0,65,0.00,,,0.00,WUHU216HW,2013-01-01 14:22:00,
2013-01-01 09:23:00,22.0,14.3,30.51,SSW,203,0.7,5.1,72,0.00,,,0.00,WUHU216HW,2013-01-01 14:23:00,
2013-01-01 09:24:00,22.0,14.3,30.51,South,180,0.4,5.1,72,0.00,,,0.00,WUHU216HW,2013-01-01 14:24:00,
2013-01-01 09:25:00,22.0,14.3,30.51,NE,45,0.7,5.1,72,0.00,,,0.00,WUHU216HW,2013-01-01 14:25:00,
2013-01-01 09:26:00,21.8,14.1,30.51,SSE,158,1.1,5.1,72,0.00,,,0.00,WUHU216HW,2013-01-01 14:26:00,
2013-01-01 09:27:00,22.7,12.2,30.18,North,0,0.4,4.0,64,0.00,,,0.00,WUHU216HW,2013-01-01 14:27:00,
2013-01-01 09:28:00,21.6,14.0,30.51,SSE,158,1.8,5.1,72,0.00,,,0.00,WUHU216HW,2013-01-01 14:28:00,
2013-01-01 09:29:00,21.6,14.0,30.51,SSW,203,0.7,5.1,72,0.00,,,0.00,WUHU216HW,2013-01-01 14:29:00,
2013-01-01 09:30:00,21.6,14.0,30.51,SE,135,2.2,5.1,72,0.00,,,0.00,WUHU216HW,2013-01-01 14:30:00,
2013-01-01 09:31:00,21.6,14.0,30.51,ESE,113,0.4,5.1,72,0.00,,,0.00,WUHU216HW,2013-01-01 14:31:00,
2013-01-01 09:32:00,22.7,12.2,30.18,West,270,0.7,1.3,64,0.00,,,0.00,WUHU216HW,2013-01-01 14:32:00,
2013-01-01 09:33:00,22.0,14.3,30.51,SE,135,0.7,5.1,72,0.00,,,0.00,WUHU216HW,2013-01-01 14:33:00,
2013-01-01 09:34:00,22.0,14.3,30.51,SSW,203,0.4,5.1,72,0.00,,,0.00,WUHU216HW,2013-01-01 14:34:00,
2013-01-01 09:35:00,22.1,14.5,30.51,SE,135,0.0,5.1,72,0.00,,,0.00,WUHU216HW,2013-01-01 14:35:00,
2013-01-01 09:36:00,22.1,14.5,30.51,SSE,158,0.7,5.1,72,0.00,,,0.00,WUHU216HW,2013-01-01 14:36:00,
2013-01-01 09:37:00,22.7,11.9,30.17,NW,315,1.1,1.6,63,0.00,,,0.00,WUHU216HW,2013-01-01 14:37:00,
2013-01-01 09:38:00,22.3,14.7,30.51,SSE,158,1.1,5.1,72,0.00,,,0.00,WUHU216HW,2013-01-01 14:38:00,
2013-01-01 09:39:00,22.5,14.5,30.51,SSE,158,0.4,5.1,71,0.00,,,0.00,WUHU216HW,2013-01-01 14:39:00,
2013-01-01 09:40:00,22.5,14.5,30.51,NE,45,1.3,5.1,71,0.00,,,0.00,WUHU216HW,2013-01-01 14:40:00,
2013-01-01 09:41:00,22.5,14.5,30.51,South,180,1.1,5.1,71,0.00,,,0.00,WUHU216HW,2013-01-01 14:41:00,
2013-01-01 09:42:00,22.7,11.9,30.17,NNW,338,0.2,1.6,63,0.00,,,0.00,WUHU216HW,2013-01-01 14:42:00,
2013-01-01 09:43:00,22.7,14.7,30.51,SSE,158,1.6,5.1,71,0.00,,,0.00,WUHU216HW,2013-01-01 14:43:00,
2013-01-01 09:44:00,22.7,14.7,30.51,SW,225,0.2,5.1,71,0.00,,,0.00,WUHU216HW,2013-01-01 14:44:00,
2013-01-01 09:45:00,22.7,14.7,30.51,ESE,113,0.4,5.1,71,0.00,,,0.00,WUHU216HW,2013-01-01 14:45:00,
2013-01-01 09:46:00,22.9,14.9,30.51,ESE,113,0.4,5.1,71,0.00,,,0.00,WUHU216HW,2013-01-01 14:46:00,
2013-01-01 09:47:00,22.9,11.7,30.17,North,0,0.2,2.2,62,0.00,,,0.00,WUHU216HW,2013-01-01 14:47:00,
2013-01-01 09:48:00,23.0,14.8,30.50,SSE,158,2.2,5.1,70,0.00,,,0.00,WUHU216HW,2013-01-01 14:48:00,
2013-01-01 09:49:00,23.0,14.8,30.50,SSE,158,0.4,5.1,70,0.00,,,0.00,WUHU216HW,2013-01-01 14:49:00,
2013-01-01 09:50:00,23.2,15.0,30.50,SSW,203,0.4,5.1,70,0.00,,,0.00,WUHU216HW,2013-01-01 14:50:00,
2013-01-01 09:51:00,23.2,15.0,30.50,SE,135,1.6,5.1,70,0.00,,,0.00,WUHU216HW,2013-01-01 14:51:00,
2013-01-01 09:52:00,22.9,11.0,30.17,North,0,1.1,2.2,60,0.00,,,0.00,WUHU216HW,2013-01-01 14:52:00,
2013-01-01 09:53:00,23.6,15.2,30.51,SE,135,1.1,5.1,70,0.00,,,0.00,WUHU216HW,2013-01-01 14:53:00,
2013-01-01 09:54:00,23.8,15.4,30.51,SSE,158,0.9,5.1,70,0.00,,,0.00,WUHU216HW,2013-01-01 14:54:00,
2013-01-01 09:55:00,23.9,15.6,30.51,SE,135,1.6,5.1,70,0.01,,,0.00,WUHU216HW,2013-01-01 14:55:00,
2013-01-01 09:56:00,24.1,15.8,30.51,South,180,1.1,5.1,70,0.01,,,0.00,WUHU216HW,2013-01-01 14:56:00,
2013-01-01 09:57:00,22.7,10.8,30.17,NNE,23,0.4,1.1,60,0.00,,,0.00,WUHU216HW,2013-01-01 14:57:00,
2013-01-01 09:58:00,24.3,15.9,30.51,WSW,248,0.2,5.1,70,0.01,,,0.00,WUHU216HW,2013-01-01 14:58:00,
2013-01-01 09:59:00,24.3,15.6,30.51,ESE,113,1.1,5.1,69,0.01,,,0.00,WUHU216HW,2013-01-01 14:59:00,
2013-01-01 10:00:00,24.5,15.8,30.51,South,180,0.4,5.1,69,0.01,,,0.00,WUHU216HW,2013-01-01 15:00:00,
2013-01-01 10:01:00,24.5,15.8,30.51,SE,135,0.7,5.1,69,0.01,,,0.00,WUHU216HW,2013-01-01 15:01:00,
2013-01-01 10:02:00,22.7,10.5,30.17,WSW,248,0.2,1.3,59,0.00,,,0.00,WUHU216HW,2013-01-01 15:02:00,
2013-01-01 10:03:00,24.7,15.8,30.51,SE,135,0.4,5.1,69,0.01,,,0.00,WUHU216HW,2013-01-01 15:03:00,
2013-01-01 10:04:00,24.8,16.0,30.51,SE,135,0.9,5.1,69,0.01,,,0.00,WUHU216HW,2013-01-01 15:04:00,
2013-01-01 10:05:00,24.8,16.4,30.51,SSE,158,0.2,5.1,70,0.01,,,0.00,WUHU216HW,2013-01-01 15:05:00,
2013-01-01 10:06:00,24.8,16.5,30.40,SSE,158,0.4,5.1,70,0.01,,,0.00,WUHU216HW,2013-01-01 15:06:00,
2013-01-01 10:07:00,23.0,11.2,30.18,SSW,203,0.0,2.7,60,0.00,,,0.00,WUHU216HW,2013-01-01 15:07:00,
2013-01-01 10:08:00,25.2,16.7,30.51,SW,225,0.2,5.1,70,0.01,,,0.00,WUHU216HW,2013-01-01 15:08:00,
2013-01-01 10:09:00,25.4,17.0,30.40,SSE,158,0.4,5.1,70,0.01,,,0.00,WUHU216HW,2013-01-01 15:09:00,
2013-01-01 10:10:00,25.4,16.9,30.51,WSW,248,1.1,5.1,70,0.01,,,0.00,WUHU216HW,2013-01-01 15:10:00,
2013-01-01 10:11:00,25.6,17.1,30.51,ESE,113,0.4,5.1,70,0.01,,,0.00,WUHU216HW,2013-01-01 15:11:00,
2013-01-01 10:12:00,23.4,11.5,30.18,NNW,338,0.2,2.7,60,0.00,,,0.00,WUHU216HW,2013-01-01 15:12:00,
2013-01-01 10:13:00,25.6,16.7,30.51,South,180,1.1,5.1,69,0.01,,,0.00,WUHU216HW,2013-01-01 15:13:00,
2013-01-01 10:14:00,25.7,16.9,30.51,ESE,113,0.7,5.1,69,0.01,,,0.00,WUHU216HW,2013-01-01 15:14:00,
2013-01-01 10:15:00,25.7,16.2,30.51,WSW,248,0.7,5.1,67,0.01,,,0.00,WUHU216HW,2013-01-01 15:15:00,
2013-01-01 10:16:00,25.6,16.0,30.51,ESE,113,1.1,5.1,67,0.01,,,0.00,WUHU216HW,2013-01-01 15:16:00,
2013-01-01 10:17:00,23.6,11.4,30.19,NW,315,0.2,1.8,59,0.00,,,0.00,WUHU216HW,2013-01-01 15:17:00,
2013-01-01 10:18:00,25.6,15.7,30.51,SE,135,3.4,5.1,66,0.01,,,0.00,WUHU216HW,2013-01-01 15:18:00,
2013-01-01 10:19:00,25.6,16.0,30.51,SSE,158,1.6,5.1,67,0.01,,,0.00,WUHU216HW,2013-01-01 15:19:00,
2013-01-01 10:20:00,25.6,16.0,30.51,SSW,203,1.6,5.1,67,0.01,,,0.00,WUHU216HW,2013-01-01 15:20:00,
2013-01-01 10:21:00,25.6,16.2,30.40,West,270,1.8,5.1,67,0.01,,,0.00,WUHU216HW,2013-01-01 15:21:00,
2013-01-01 10:22:00,23.4,10.7,30.19,NNE,23,0.4,1.8,58,0.00,,,0.00,WUHU216HW,2013-01-01 15:22:00,
2013-01-01 10:23:00,25.6,15.9,30.40,SE,135,1.8,5.1,66,0.01,,,0.00,WUHU216HW,2013-01-01 15:23:00,
2013-01-01 10:24:00,25.7,16.0,30.40,SSE,158,1.6,5.1,66,0.01,,,0.00,WUHU216HW,2013-01-01 15:24:00,
2013-01-01 10:25:00,25.7,15.8,30.51,SSW,203,0.4,5.1,66,0.01,,,0.00,WUHU216HW,2013-01-01 15:25:00,
2013-01-01 10:26:00,25.7,16.0,30.40,SE,135,2.2,5.1,66,0.01,,,0.00,WUHU216HW,2013-01-01 15:26:00,
2013-01-01 10:27:00,23.4,10.4,30.19,WNW,293,0.7,1.1,57,0.00,,,0.00,WUHU216HW,2013-01-01 15:27:00,
2013-01-01 10:28:00,25.7,16.0,30.40,SE,135,0.4,5.1,66,0.01,,,0.00,WUHU216HW,2013-01-01 15:28:00,
2013-01-01 10:29:00,25.7,16.0,30.40,SE,135,2.5,5.1,66,0.01,,,0.00,WUHU216HW,2013-01-01 15:29:00,
2013-01-01 10:30:00,25.9,16.2,30.40,SSW,203,0.7,5.1,66,0.01,,,0.00,WUHU216HW,2013-01-01 15:30:00,
2013-01-01 10:31:00,25.9,16.2,30.40,ESE,113,0.4,5.1,66,0.01,,,0.00,WUHU216HW,2013-01-01 15:31:00,
2013-01-01 10:32:00,23.4,10.4,30.18,WNW,293,0.7,1.1,57,0.00,,,0.00,WUHU216HW,2013-01-01 15:32:00,
2013-01-01 10:33:00,25.9,15.7,30.51,SSE,158,1.3,5.1,65,0.01,,,0.00,WUHU216HW,2013-01-01 15:33:00,
2013-01-01 10:34:00,26.1,15.8,30.51,East,90,2.5,5.1,65,0.01,,,0.00,WUHU216HW,2013-01-01 15:34:00,
2013-01-01 10:35:00,26.1,15.8,30.51,South,180,1.8,5.1,65,0.01,,,0.00,WUHU216HW,2013-01-01 15:35:00,
2013-01-01 10:36:00,26.1,15.5,30.51,SSE,158,1.3,5.1,64,0.01,,,0.00,WUHU216HW,2013-01-01 15:36:00,
2013-01-01 10:37:00,23.4,9.9,30.19,WNW,293,0.4,1.3,56,0.00,,,0.00,WUHU216HW,2013-01-01 15:37:00,
2013-01-01 10:38:00,25.9,15.0,30.51,SSE,158,3.1,5.1,63,0.01,,,0.00,WUHU216HW,2013-01-01 15:38:00,
2013-01-01 10:39:00,25.9,15.0,30.51,ESE,113,0.9,5.1,63,0.01,,,0.00,WUHU216HW,2013-01-01 15:39:00,
2013-01-01 10:40:00,25.9,15.3,30.51,ESE,113,1.3,5.1,64,0.01,,,0.00,WUHU216HW,2013-01-01 15:40:00,
2013-01-01 10:41:00,25.9,15.3,30.51,SE,135,0.4,5.1,64,0.01,,,0.00,WUHU216HW,2013-01-01 15:41:00,
2013-01-01 10:42:00,23.4,10.4,30.19,WSW,248,0.7,2.0,57,0.00,,,0.00,WUHU216HW,2013-01-01 15:42:00,
2013-01-01 10:43:00,26.1,14.8,30.51,East,90,2.5,5.1,62,0.01,,,0.00,WUHU216HW,2013-01-01 15:43:00,
2013-01-01 10:44:00,26.1,14.8,30.51,SE,135,2.7,5.1,62,0.01,,,0.00,WUHU216HW,2013-01-01 15:44:00,
2013-01-01 10:45:00,25.9,14.7,30.51,SSE,158,3.4,5.1,62,0.01,,,0.00,WUHU216HW,2013-01-01 15:45:00,
2013-01-01 10:46:00,25.9,14.7,30.51,West,270,0.7,5.1,62,0.01,,,0.00,WUHU216HW,2013-01-01 15:46:00,
2013-01-01 10:47:00,23.4,9.9,30.20,NNW,338,0.7,2.0,56,0.00,,,0.00,WUHU216HW,2013-01-01 15:47:00,
2013-01-01 10:52:00,23.6,9.7,30.20,NNW,338,0.4,1.1,55,0.00,,,0.00,WUHU216HW,2013-01-01 15:52:00,
2013-01-01 10:57:00,23.8,10.7,30.20,North,0,0.0,1.8,57,0.00,,,0.00,WUHU216HW,2013-01-01 15:57:00,
2013-01-01 11:02:00,24.1,10.2,30.19,North,0,0.9,1.8,55,0.00,,,0.00,WUHU216HW,2013-01-01 16:02:00,
2013-01-01 11:07:00,23.8,10.3,30.19,NNW,338,0.4,1.8,56,0.00,,,0.00,WUHU216HW,2013-01-01 16:07:00,
2013-01-01 11:12:00,23.9,10.4,30.18,WNW,293,0.2,1.8,56,0.00,,,0.00,WUHU216HW,2013-01-01 16:12:00,
2013-01-01 11:17:00,24.1,11.0,30.18,North,0,0.2,1.3,57,0.00,,,0.00,WUHU216HW,2013-01-01 16:17:00,
2013-01-01 11:22:00,24.5,10.5,30.17,North,0,4.5,4.5,55,0.00,,,0.00,WUHU216HW,2013-01-01 16:22:00,
2013-01-01 11:27:00,24.7,11.2,30.17,NNW,338,1.3,4.5,56,0.00,,,0.00,WUHU216HW,2013-01-01 16:27:00,
2013-01-01 11:32:00,24.5,10.5,30.17,NNE,23,2.9,3.4,55,0.00,,,0.00,WUHU216HW,2013-01-01 16:32:00,
2013-01-01 11:37:00,24.5,10.5,30.17,NW,315,0.9,2.9,55,0.00,,,0.00,WUHU216HW,2013-01-01 16:37:00,
2013-01-01 11:42:00,24.1,9.4,30.16,NNW,338,1.8,2.5,53,0.00,,,0.00,WUHU216HW,2013-01-01 16:42:00,
2013-01-01 11:47:00,24.5,10.5,30.15,NE,45,2.0,2.0,55,0.00,,,0.00,WUHU216HW,2013-01-01 16:47:00,
2013-01-01 11:52:00,24.8,10.1,30.15,North,0,1.8,2.2,53,0.00,,,0.00,WUHU216HW,2013-01-01 16:52:00,
2013-01-01 11:57:00,24.5,9.7,30.14,NNE,23,2.0,4.3,53,0.00,,,0.00,WUHU216HW,2013-01-01 16:57:00,
2013-01-01 12:02:00,24.3,9.5,30.14,NNW,338,2.5,4.3,53,0.00,,,0.00,WUHU216HW,2013-01-01 17:02:00,
2013-01-01 12:07:00,24.7,9.9,30.13,NNE,23,1.3,2.5,53,0.00,,,0.00,WUHU216HW,2013-01-01 17:07:00,
2013-01-01 12:12:00,25.0,10.6,30.13,NE,45,1.1,3.4,54,0.00,,,0.00,WUHU216HW,2013-01-01 17:12:00,
2013-01-01 12:17:00,25.2,9.5,30.13,NW,315,2.5,3.8,51,0.00,,,0.00,WUHU216HW,2013-01-01 17:17:00,
2013-01-01 12:22:00,25.2,9.5,30.13,NNW,338,0.9,3.8,51,0.00,,,0.00,WUHU216HW,2013-01-01 17:22:00,
2013-01-01 12:27:00,25.2,9.5,30.12,NNW,338,2.0,2.0,51,0.00,,,0.00,WUHU216HW,2013-01-01 17:27:00,
2013-01-01 12:32:00,25.7,10.1,30.13,NNW,338,1.8,3.6,51,0.00,,,0.00,WUHU216HW,2013-01-01 17:32:00,
2013-01-01 12:37:00,25.9,10.6,30.13,North,0,1.8,3.6,52,0.00,,,0.00,WUHU216HW,2013-01-01 17:37:00,
2013-01-01 12:42:00,25.7,10.1,30.13,WNW,293,1.1,4.5,51,0.00,,,0.00,WUHU216HW,2013-01-01 17:42:00,
2013-01-01 12:47:00,25.7,10.4,30.13,NNW,338,2.5,4.5,52,0.00,,,0.00,WUHU216HW,2013-01-01 17:47:00,
2013-01-01 12:52:00,25.9,10.6,30.13,NNE,23,1.8,2.5,52,0.00,,,0.00,WUHU216HW,2013-01-01 17:52:00,
2013-01-01 12:57:00,26.3,10.5,30.13,East,90,1.8,2.5,51,0.00,,,0.00,WUHU216HW,2013-01-01 17:57:00,
2013-01-01 13:02:00,25.7,9.6,30.13,North,0,4.9,4.9,50,0.00,,,0.00,WUHU216HW,2013-01-01 18:02:00,
2013-01-01 13:07:00,25.0,9.4,30.13,NNE,23,3.1,4.9,51,0.00,,,0.00,WUHU216HW,2013-01-01 18:07:00,
2013-01-01 13:12:00,25.0,9.4,30.12,North,0,0.4,3.1,51,0.00,,,0.00,WUHU216HW,2013-01-01 18:12:00,
2013-01-01 13:17:00,25.0,9.8,30.12,NNW,338,1.3,2.2,52,0.00,,,0.00,WUHU216HW,2013-01-01 18:17:00,
2013-01-01 13:22:00,25.4,9.7,30.12,NNW,338,0.7,2.5,51,0.00,,,0.00,WUHU216HW,2013-01-01 18:22:00,
2013-01-01 13:27:00,25.2,9.5,30.12,NNW,338,0.2,2.9,51,0.00,,,0.00,WUHU216HW,2013-01-01 18:27:00,
2013-01-01 13:32:00,25.0,9.8,30.12,West,270,0.4,2.9,52,0.00,,,0.00,WUHU216HW,2013-01-01 18:32:00,
2013-01-01 13:37:00,25.4,10.2,30.12,WNW,293,2.0,2.0,52,0.00,,,0.00,WUHU216HW,2013-01-01 18:37:00,
2013-01-01 13:42:00,25.6,9.9,30.12,North,0,1.6,2.5,51,0.00,,,0.00,WUHU216HW,2013-01-01 18:42:00,
2013-01-01 13:47:00,25.6,9.9,30.12,NW,315,0.9,2.5,51,0.00,,,0.00,WUHU216HW,2013-01-01 18:47:00,
2013-01-01 13:52:00,25.2,9.5,30.13,SSW,203,2.9,2.9,51,0.00,,,0.00,WUHU216HW,2013-01-01 18:52:00,
2013-01-01 13:57:00,25.4,10.2,30.13,NNW,338,0.4,2.9,52,0.00,,,0.00,WUHU216HW,2013-01-01 18:57:00,
2013-01-01 14:02:00,25.6,9.9,30.13,ENE,68,0.7,2.5,51,0.00,,,0.00,WUHU216HW,2013-01-01 19:02:00,
2013-01-01 14:07:00,25.6,9.5,30.13,WSW,248,1.6,2.5,50,0.00,,,0.00,WUHU216HW,2013-01-01 19:07:00,
2013-01-01 14:12:00,25.7,10.1,30.12,SW,225,0.0,2.5,51,0.00,,,0.00,WUHU216HW,2013-01-01 19:12:00,
2013-01-01 14:17:00,25.6,9.9,30.12,NNW,338,0.4,1.8,51,0.00,,,0.00,WUHU216HW,2013-01-01 19:17:00,
2013-01-01 14:22:00,25.7,10.1,30.12,WSW,248,0.4,1.8,51,0.00,,,0.00,WUHU216HW,2013-01-01 19:22:00,
2013-01-01 14:27:00,25.9,10.2,30.12,SSE,158,0.4,1.8,51,0.00,,,0.00,WUHU216HW,2013-01-01 19:27:00,
2013-01-01 14:32:00,25.9,10.6,30.12,NE,45,0.2,2.0,52,0.00,,,0.00,WUHU216HW,2013-01-01 19:32:00,
2013-01-01 14:37:00,26.3,11.0,30.13,NW,315,0.9,2.0,52,0.00,,,0.00,WUHU216HW,2013-01-01 19:37:00,
2013-01-01 14:42:00,26.5,11.1,30.12,SW,225,0.9,2.0,52,0.00,,,0.00,WUHU216HW,2013-01-01 19:42:00,
2013-01-01 14:47:00,26.6,11.3,30.13,West,270,0.9,1.6,52,0.00,,,0.00,WUHU216HW,2013-01-01 19:47:00,
2013-01-01 14:52:00,26.3,10.1,30.13,NW,315,0.0,2.5,50,0.00,,,0.00,WUHU216HW,2013-01-01 19:52:00,
2013-01-01 14:57:00,26.1,10.4,30.12,WNW,293,0.2,2.5,51,0.00,,,0.00,WUHU216HW,2013-01-01 19:57:00,
2013-01-01 15:02:00,25.9,9.8,30.12,SE,135,1.6,4.0,50,0.00,,,0.00,WUHU216HW,2013-01-01 20:02:00,
2013-01-01 15:07:00,26.3,10.5,30.13,NNW,338,0.2,4.0,51,0.00,,,0.00,WUHU216HW,2013-01-01 20:07:00,
2013-01-01 15:12:00,26.6,10.4,30.12,NW,315,0.2,1.8,50,0.00,,,0.00,WUHU216HW,2013-01-01 20:12:00,
2013-01-01 15:17:00,26.3,10.1,30.12,North,0,0.7,2.0,50,0.00,,,0.00,WUHU216HW,2013-01-01 20:17:00,
2013-01-01 15:22:00,25.9,9.8,30.13,NW,315,1.1,2.0,50,0.00,,,0.00,WUHU216HW,2013-01-01 20:22:00,
2013-01-01 15:27:00,25.7,9.6,30.13,West,270,0.0,1.1,50,0.00,,,0.00,WUHU216HW,2013-01-01 20:27:00,
2013-01-01 15:32:00,25.6,9.9,30.13,North,0,1.8,2.7,51,0.00,,,0.00,WUHU216HW,2013-01-01 20:32:00,
2013-01-01 15:37:00,25.2,9.5,30.13,West,270,1.6,2.7,51,0.00,,,0.00,WUHU216HW,2013-01-01 20:37:00,
2013-01-01 15:42:00,25.0,9.4,30.13,WNW,293,1.1,3.1,51,0.00,,,0.00,WUHU216HW,2013-01-01 20:42:00,
2013-01-01 15:47:00,25.2,10.0,30.12,WNW,293,1.1,3.1,52,0.00,,,0.00,WUHU216HW,2013-01-01 20:47:00,
2013-01-01 15:52:00,25.2,10.0,30.13,NW,315,0.7,1.8,52,0.00,,,0.00,WUHU216HW,2013-01-01 20:52:00,
2013-01-01 15:57:00,25.0,9.4,30.13,West,270,1.1,1.8,51,0.00,,,0.00,WUHU216HW,2013-01-01 20:57:00,
2013-01-01 16:02:00,25.0,9.8,30.13,NNW,338,1.6,2.2,52,0.00,,,0.00,WUHU216HW,2013-01-01 21:02:00,
2013-01-01 16:07:00,24.8,9.6,30.13,NNW,338,0.2,2.5,52,0.00,,,0.00,WUHU216HW,2013-01-01 21:07:00,
2013-01-01 16:12:00,24.8,9.6,30.14,West,270,0.4,2.9,52,0.00,,,0.00,WUHU216HW,2013-01-01 21:12:00,
2013-01-01 16:17:00,24.5,9.7,30.14,SW,225,2.2,2.9,53,0.00,,,0.00,WUHU216HW,2013-01-01 21:17:00,
2013-01-01 16:22:00,24.5,9.7,30.14,NNW,338,0.4,2.2,53,0.00,,,0.00,WUHU216HW,2013-01-01 21:22:00,
2013-01-01 16:27:00,24.1,9.4,30.14,South,180,0.7,1.6,53,0.00,,,0.00,WUHU216HW,2013-01-01 21:27:00,
2013-01-01 16:32:00,24.1,9.4,30.14,NNW,338,0.0,1.1,53,0.00,,,0.00,WUHU216HW,2013-01-01 21:32:00,
2013-01-01 16:37:00,24.3,10.0,30.14,West,270,0.4,1.3,54,0.00,,,0.00,WUHU216HW,2013-01-01 21:37:00,
2013-01-01 16:42:00,24.5,9.7,30.14,NNW,338,0.2,1.6,53,0.00,,,0.00,WUHU216HW,2013-01-01 21:42:00,
2013-01-01 16:47:00,24.3,10.0,30.14,NNW,338,0.4,2.0,54,0.00,,,0.00,WUHU216HW,2013-01-01 21:47:00,
2013-01-01 16:52:00,24.1,9.8,30.14,North,0,0.0,2.0,54,0.00,,,0.00,WUHU216HW,2013-01-01 21:52:00,
2013-01-01 16:57:00,24.1,9.8,30.14,SW,225,0.2,0.7,54,0.00,,,0.00,WUHU216HW,2013-01-01 21:57:00,
2013-01-01 17:02:00,24.1,9.8,30.14,North,0,0.0,1.6,54,0.00,,,0.00,WUHU216HW,2013-01-01 22:02:00,
2013-01-01 17:07:00,24.1,9.8,30.14,WSW,248,0.2,1.6,54,0.00,,,0.00,WUHU216HW,2013-01-01 22:07:00,
2013-01-01 17:12:00,23.9,9.6,30.13,NW,315,0.2,0.7,54,0.00,,,0.00,WUHU216HW,2013-01-01 22:12:00,
2013-01-01 17:17:00,23.9,9.6,30.14,WSW,248,0.4,0.4,54,0.00,,,0.00,WUHU216HW,2013-01-01 22:17:00,
2013-01-01 17:22:00,23.9,9.6,30.14,NNW,338,0.0,0.4,54,0.00,,,0.00,WUHU216HW,2013-01-01 22:22:00,
2013-01-01 17:27:00,23.8,9.5,30.13,West,270,0.0,0.4,54,0.00,,,0.00,WUHU216HW,2013-01-01 22:27:00,
2013-01-01 17:32:00,23.8,9.5,30.14,NW,315,0.0,0.4,54,0.00,,,0.00,WUHU216HW,2013-01-01 22:32:00,
2013-01-01 17:37:00,23.8,9.5,30.14,WSW,248,0.0,0.2,54,0.00,,,0.00,WUHU216HW,2013-01-01 22:37:00,
2013-01-01 17:42:00,23.9,10.1,30.14,West,270,0.0,0.2,55,0.00,,,0.00,WUHU216HW,2013-01-01 22:42:00,
2013-01-01 17:47:00,23.8,9.9,30.14,WNW,293,0.0,0.2,55,0.00,,,0.00,WUHU216HW,2013-01-01 22:47:00,
2013-01-01 17:52:00,23.8,9.9,30.14,NNW,338,0.0,0.0,55,0.00,,,0.00,WUHU216HW,2013-01-01 22:52:00,
2013-01-01 17:57:00,23.6,9.7,30.14,NNW,338,0.0,0.0,55,0.00,,,0.00,WUHU216HW,2013-01-01 22:57:00,
2013-01-01 18:02:00,23.4,9.6,30.14,NW,315,0.0,0.0,55,0.00,,,0.00,WUHU216HW,2013-01-01 23:02:00,
2013-01-01 18:07:00,23.2,9.4,30.14,NW,315,0.0,0.0,55,0.00,,,0.00,WUHU216HW,2013-01-01 23:07:00,
2013-01-01 18:12:00,22.9,9.0,30.13,NW,315,0.0,0.0,55,0.00,,,0.00,WUHU216HW,2013-01-01 23:12:00,
2013-01-01 18:17:00,22.9,9.0,30.13,NW,315,0.0,0.0,55,0.00,,,0.00,WUHU216HW,2013-01-01 23:17:00,
2013-01-01 18:22:00,22.9,9.0,30.13,NNW,338,0.0,0.0,55,0.00,,,0.00,WUHU216HW,2013-01-01 23:22:00,
2013-01-01 18:27:00,22.9,9.0,30.13,NNW,338,0.0,0.0,55,0.00,,,0.00,WUHU216HW,2013-01-01 23:27:00,
2013-01-01 18:32:00,22.7,8.8,30.13,NNW,338,0.0,0.0,55,0.00,,,0.00,WUHU216HW,2013-01-01 23:32:00,
2013-01-01 18:37:00,22.5,8.6,30.13,NNW,338,0.0,0.0,55,0.00,,,0.00,WUHU216HW,2013-01-01 23:37:00,
2013-01-01 18:42:00,22.1,8.4,30.13,NNW,338,0.0,0.0,55,0.00,,,0.00,WUHU216HW,2013-01-01 23:42:00,
2013-01-01 18:47:00,22.0,8.2,30.13,NNW,338,0.0,0.0,55,0.00,,,0.00,WUHU216HW,2013-01-01 23:47:00,
2013-01-01 18:52:00,21.6,8.2,30.13,NNW,338,0.0,0.0,56,0.00,,,0.00,WUHU216HW,2013-01-01 23:52:00,
2013-01-01 18:57:00,21.6,8.2,30.13,NNW,338,0.0,0.0,56,0.00,,,0.00,WUHU216HW,2013-01-01 23:57:00,
2013-01-01 19:02:00,21.4,8.0,30.13,WNW,293,0.0,0.0,56,0.00,,,0.00,WUHU216HW,2013-01-02 00:02:00,
2013-01-01 19:07:00,21.2,7.9,30.13,NW,315,0.0,0.0,56,0.00,,,0.00,WUHU216HW,2013-01-02 00:07:00,
2013-01-01 19:12:00,21.1,7.8,30.13,NW,315,0.0,0.0,56,0.00,,,0.00,WUHU216HW,2013-01-02 00:12:00,
2013-01-01 19:17:00,20.7,7.7,30.13,NW,315,0.0,0.0,57,0.00,,,0.00,WUHU216HW,2013-01-02 00:17:00,
2013-01-01 19:22:00,20.7,7.7,30.13,NW,315,0.0,0.0,57,0.00,,,0.00,WUHU216HW,2013-01-02 00:22:00,
2013-01-01 19:27:00,20.7,7.7,30.13,North,0,0.0,0.0,57,0.00,,,0.00,WUHU216HW,2013-01-02 00:27:00,
2013-01-01 19:32:00,20.7,7.7,30.13,North,0,0.0,0.0,57,0.00,,,0.00,WUHU216HW,2013-01-02 00:32:00,
2013-01-01 19:37:00,20.5,7.6,30.13,WSW,248,0.0,0.0,57,0.00,,,0.00,WUHU216HW,2013-01-02 00:37:00,
2013-01-01 19:42:00,20.5,7.6,30.12,WSW,248,0.0,0.0,57,0.00,,,0.00,WUHU216HW,2013-01-02 00:42:00,
2013-01-01 19:47:00,20.5,8.0,30.12,NNW,338,0.0,0.0,58,0.00,,,0.00,WUHU216HW,2013-01-02 00:47:00,
2013-01-01 19:52:00,20.2,7.7,30.12,NNW,338,0.0,0.0,58,0.00,,,0.00,WUHU216HW,2013-01-02 00:52:00,
2013-01-01 19:57:00,20.2,7.7,30.12,NNW,338,0.0,0.0,58,0.00,,,0.00,WUHU216HW,2013-01-02 00:57:00,
2013-01-01 20:02:00,20.0,7.5,30.12,NNW,338,0.0,0.0,58,0.00,,,0.00,WUHU216HW,2013-01-02 01:02:00,
2013-01-01 20:07:00,20.0,7.5,30.12,NNW,338,0.0,0.0,58,0.00,,,0.00,WUHU216HW,2013-01-02 01:07:00,
2013-01-01 20:12:00,19.8,7.3,30.12,NNW,338,0.0,0.0,58,0.00,,,0.00,WUHU216HW,2013-01-02 01:12:00,
2013-01-01 20:17:00,19.8,7.8,30.12,NNW,338,0.0,0.0,59,0.00,,,0.00,WUHU216HW,2013-01-02 01:17:00,
2013-01-01 20:22:00,19.8,7.8,30.12,NNW,338,0.0,0.0,59,0.00,,,0.00,WUHU216HW,2013-01-02 01:22:00,
2013-01-01 20:27:00,19.6,7.6,30.12,NNW,338,0.0,0.0,59,0.00,,,0.00,WUHU216HW,2013-01-02 01:27:00,
2013-01-01 20:32:00,19.4,7.4,30.12,NNW,338,0.0,0.0,59,0.00,,,0.00,WUHU216HW,2013-01-02 01:32:00,
2013-01-01 20:37:00,19.3,7.2,30.12,NNW,338,0.0,0.0,59,0.00,,,0.00,WUHU216HW,2013-01-02 01:37:00,
2013-01-01 20:42:00,19.3,7.6,30.13,NNW,338,0.0,0.0,60,0.00,,,0.00,WUHU216HW,2013-01-02 01:42:00,
2013-01-01 20:47:00,19.1,7.4,30.13,NNW,338,0.0,0.0,60,0.00,,,0.00,WUHU216HW,2013-01-02 01:47:00,
2013-01-01 20:52:00,19.1,7.4,30.12,NNW,338,0.0,0.0,60,0.00,,,0.00,WUHU216HW,2013-01-02 01:52:00,
2013-01-01 20:57:00,18.9,7.3,30.13,NNW,338,0.0,0.0,60,0.00,,,0.00,WUHU216HW,2013-01-02 01:57:00,
2013-01-01 21:02:00,18.7,7.1,30.13,NNW,338,0.0,0.0,60,0.00,,,0.00,WUHU216HW,2013-01-02 02:02:00,
2013-01-01 21:07:00,18.7,7.1,30.12,NNW,338,0.0,0.0,60,0.00,,,0.00,WUHU216HW,2013-01-02 02:07:00,
2013-01-01 21:12:00,18.5,6.9,30.13,NNW,338,0.0,0.0,60,0.00,,,0.00,WUHU216HW,2013-01-02 02:12:00,
2013-01-01 21:17:00,18.2,6.6,30.13,NNW,338,0.0,0.0,60,0.00,,,0.00,WUHU216HW,2013-01-02 02:17:00,
2013-01-01 21:22:00,18.2,6.9,30.12,NNW,338,0.0,0.0,61,0.00,,,0.00,WUHU216HW,2013-01-02 02:22:00,
2013-01-01 21:27:00,18.0,6.8,30.12,NW,315,0.4,0.4,61,0.00,,,0.00,WUHU216HW,2013-01-02 02:27:00,
2013-01-01 21:32:00,18.2,6.9,30.12,NW,315,0.0,0.4,61,0.00,,,0.00,WUHU216HW,2013-01-02 02:32:00,
2013-01-01 21:37:00,18.4,7.1,30.12,NW,315,0.2,0.2,61,0.00,,,0.00,WUHU216HW,2013-01-02 02:37:00,
2013-01-01 21:42:00,18.4,7.1,30.12,NW,315,0.0,0.2,61,0.00,,,0.00,WUHU216HW,2013-01-02 02:42:00,
2013-01-01 21:47:00,18.4,7.1,30.13,North,0,0.0,0.2,61,0.00,,,0.00,WUHU216HW,2013-01-02 02:47:00,
2013-01-01 21:52:00,18.5,7.3,30.13,WNW,293,0.0,0.2,61,0.00,,,0.00,WUHU216HW,2013-01-02 02:52:00,
2013-01-01 21:57:00,18.7,7.5,30.13,WNW,293,0.0,0.2,61,0.00,,,0.00,WUHU216HW,2013-01-02 02:57:00,
2013-01-01 22:02:00,19.1,8.1,30.12,West,270,0.0,0.2,62,0.00,,,0.00,WUHU216HW,2013-01-02 03:02:00,
2013-01-01 22:07:00,19.3,8.3,30.13,NNW,338,0.9,0.9,62,0.00,,,0.00,WUHU216HW,2013-01-02 03:07:00,
2013-01-01 22:12:00,19.3,8.3,30.13,NW,315,0.7,1.1,62,0.00,,,0.00,WUHU216HW,2013-01-02 03:12:00,
2013-01-01 22:17:00,19.4,8.5,30.13,North,0,0.9,1.1,62,0.00,,,0.00,WUHU216HW,2013-01-02 03:17:00,
2013-01-01 22:22:00,19.4,8.7,30.13,NW,315,0.0,1.8,63,0.00,,,0.00,WUHU216HW,2013-01-02 03:22:00,
2013-01-01 22:27:00,19.4,8.7,30.12,NW,315,0.0,1.8,63,0.00,,,0.00,WUHU216HW,2013-01-02 03:27:00,
2013-01-01 22:32:00,19.6,8.9,30.12,NW,315,0.2,1.6,63,0.00,,,0.00,WUHU216HW,2013-01-02 03:32:00,
2013-01-01 22:37:00,19.6,8.9,30.12,NW,315,0.0,1.8,63,0.00,,,0.00,WUHU216HW,2013-01-02 03:37:00,
2013-01-01 22:42:00,19.8,9.1,30.12,WSW,248,0.9,1.8,63,0.00,,,0.00,WUHU216HW,2013-01-02 03:42:00,
2013-01-01 22:47:00,19.8,9.8,30.12,WSW,248,1.6,1.6,65,0.00,,,0.00,WUHU216HW,2013-01-02 03:47:00,
2013-01-01 22:52:00,19.8,9.5,30.12,West,270,0.4,1.6,64,0.00,,,0.00,WUHU216HW,2013-01-02 03:52:00,
2013-01-01 22:57:00,19.8,9.5,30.12,WNW,293,0.0,3.4,64,0.00,,,0.00,WUHU216HW,2013-01-02 03:57:00,
2013-01-01 23:02:00,19.8,9.8,30.12,SSW,203,1.6,3.4,65,0.00,,,0.00,WUHU216HW,2013-01-02 04:02:00,
2013-01-01 23:07:00,19.8,9.8,30.12,West,270,0.4,1.8,65,0.00,,,0.00,WUHU216HW,2013-01-02 04:07:00,
2013-01-01 23:12:00,20.0,9.6,30.12,West,270,0.4,1.1,64,0.00,,,0.00,WUHU216HW,2013-01-02 04:12:00,
2013-01-01 23:17:00,19.8,9.8,30.12,SSW,203,0.4,1.1,65,0.00,,,0.00,WUHU216HW,2013-01-02 04:17:00,
2013-01-01 23:22:00,19.8,9.8,30.12,West,270,0.9,0.9,65,0.00,,,0.00,WUHU216HW,2013-01-02 04:22:00,
2013-01-01 23:27:00,19.8,9.5,30.12,WNW,293,0.0,0.9,64,0.00,,,0.00,WUHU216HW,2013-01-02 04:27:00,
2013-01-01 23:32:00,19.8,9.5,30.12,NNE,23,0.4,0.7,64,0.00,,,0.00,WUHU216HW,2013-01-02 04:32:00,
2013-01-01 23:37:00,19.6,9.3,30.12,WSW,248,0.4,0.4,64,0.00,,,0.00,WUHU216HW,2013-01-02 04:37:00,
2013-01-01 23:42:00,19.6,9.3,30.12,West,270,1.1,1.1,64,0.00,,,0.00,WUHU216HW,2013-01-02 04:42:00,
2013-01-01 23:47:00,19.6,9.3,30.12,SSW,203,0.4,1.1,64,0.00,,,0.00,WUHU216HW,2013-01-02 04:47:00,
2013-01-01 23:52:00,19.4,9.5,30.12,WSW,248,0.4,2.2,65,0.00,,,0.00,WUHU216HW,2013-01-02 04:52:00,
2013-01-01 23:57:00,19.3,9.3,30.12,West,270,0.4,2.2,65,0.00,,,0.00,WUHU216HW,2013-01-02 04:57:00,